createdAt,value
2019-04-24T00:00:35.941Z,15.18
2019-04-24T00:03:39.242Z,15.11
2019-04-24T00:04:31.283Z,15.15
2019-04-24T00:05:58.568Z,15.10
2019-04-24T00:07:30.470Z,15.07
2019-04-24T00:09:44.683Z,14.89
2019-04-24T00:10:43.470Z,14.88
2019-04-24T00:11:38.023Z,14.89
2019-04-24T00:13:39.938Z,14.79
2019-04-24T00:17:32.426Z,14.55
2019-04-24T00:18:45.861Z,14.60
2019-04-24T00:21:27.362Z,14.50
2019-04-24T00:22:37.776Z,14.47
2019-04-24T00:23:42.426Z,14.51
2019-04-24T00:24:25.608Z,14.45
2019-04-24T00:25:33.081Z,14.45
2019-04-24T00:27:38.221Z,14.43
2019-04-24T00:28:33.548Z,14.47
2019-04-24T00:29:36.009Z,14.33
2019-04-24T00:30:32.510Z,14.33
2019-04-24T00:31:35.674Z,14.28
2019-04-24T00:32:31.276Z,14.32
2019-04-24T00:35:31.116Z,14.18
2019-04-24T00:40:40.178Z,14.18
2019-04-24T00:42:23.585Z,14.12
2019-04-24T00:45:53.636Z,14.08
2019-04-24T00:49:31.922Z,14.26
2019-04-24T00:50:38.956Z,14.32
2019-04-24T00:51:48.248Z,14.32
2019-04-24T00:52:33.743Z,14.35
2019-04-24T00:54:27.099Z,14.41
2019-04-24T00:55:39.284Z,14.43
2019-04-24T00:56:33.775Z,14.45
2019-04-24T00:57:48.639Z,14.50
2019-04-24T00:58:33.943Z,14.43
2019-04-24T01:00:44.985Z,14.48
2019-04-24T01:02:50.147Z,14.58
2019-04-24T01:03:38.193Z,14.58
2019-04-24T01:04:54.589Z,14.60
2019-04-24T01:06:36.164Z,14.70
2019-04-24T01:09:49.719Z,14.78
2019-04-24T01:11:26.399Z,14.78
2019-04-24T01:12:38.759Z,14.81
2019-04-24T01:13:27.967Z,14.84
2019-04-24T01:14:47.324Z,14.82
2019-04-24T01:16:33.150Z,14.84
2019-04-24T01:17:39.117Z,14.78
2019-04-24T01:18:37.078Z,14.69
2019-04-24T01:19:37.076Z,14.68
2019-04-24T01:21:32.101Z,14.70
2019-04-24T01:22:40.655Z,14.66
2019-04-24T01:23:26.939Z,14.68
2019-04-24T01:24:28.217Z,14.65
2019-04-24T01:26:31.410Z,14.62
2019-04-24T01:27:35.691Z,14.60
2019-04-24T01:28:34.838Z,14.60
2019-04-24T01:29:32.325Z,14.60
2019-04-24T01:31:32.441Z,14.70
2019-04-24T01:32:35.155Z,14.72
2019-04-24T01:33:41.702Z,14.68
2019-04-24T01:34:44.202Z,14.66
2019-04-24T01:35:31.882Z,14.78
2019-04-24T01:36:35.869Z,14.78
2019-04-24T01:39:37.672Z,14.84
2019-04-24T01:40:31.994Z,14.77
2019-04-24T01:41:29.070Z,14.73
2019-04-24T01:42:27.961Z,14.78
2019-04-24T01:45:50.607Z,14.78
2019-04-24T01:46:31.259Z,14.82
2019-04-24T01:47:27.935Z,14.82
2019-04-24T01:48:37.593Z,14.86
2019-04-24T01:49:42.495Z,14.96
2019-04-24T01:50:29.353Z,14.97
2019-04-24T01:51:41.465Z,14.97
2019-04-24T01:53:28.250Z,15.10
2019-04-24T01:56:48.281Z,15.18
2019-04-24T01:57:40.460Z,15.22
2019-04-24T01:59:37.283Z,15.21
2019-04-24T02:00:53.855Z,15.22
2019-04-24T02:01:33.394Z,15.15
2019-04-24T02:03:32.982Z,15.19
2019-04-24T02:04:35.584Z,15.29
2019-04-24T02:05:26.410Z,15.25
2019-04-24T02:07:32.599Z,15.22
2019-04-24T02:08:29.742Z,15.27
2019-04-24T02:09:34.418Z,15.35
2019-04-24T02:11:36.966Z,15.21
2019-04-24T02:12:45.117Z,15.33
2019-04-24T02:13:28.871Z,15.29
2019-04-24T02:14:35.930Z,15.31
2019-04-24T02:16:28.250Z,15.28
2019-04-24T02:17:41.060Z,15.36
2019-04-24T02:18:32.924Z,15.31
2019-04-24T02:20:37.179Z,15.29
2019-04-24T02:21:35.573Z,15.35
2019-04-24T02:22:33.607Z,15.29
2019-04-24T02:24:35.887Z,15.27
2019-04-24T02:26:42.645Z,15.18
2019-04-24T02:29:35.678Z,15.22
2019-04-24T02:33:01.403Z,15.17
2019-04-24T02:34:36.057Z,15.14
2019-04-24T02:37:41.423Z,15.15
2019-04-24T02:40:36.999Z,15.07
2019-04-24T02:41:44.642Z,15.11
2019-04-24T02:42:42.718Z,15.18
2019-04-24T02:43:42.606Z,15.15
2019-04-24T02:45:00.157Z,15.07
2019-04-24T02:45:51.594Z,15.17
2019-04-24T02:46:41.074Z,15.15
2019-04-24T02:47:45.304Z,15.11
2019-04-24T02:49:04.420Z,15.09
2019-04-24T02:51:34.219Z,15.09
2019-04-24T02:53:41.022Z,15.15
2019-04-24T02:58:43.552Z,15.09
2019-04-24T02:59:45.268Z,15.11
2019-04-24T03:01:53.777Z,15.07
2019-04-24T03:02:51.009Z,15.15
2019-04-24T03:06:40.333Z,15.17
2019-04-24T03:08:55.984Z,15.09
2019-04-24T03:09:40.133Z,15.11
2019-04-24T03:12:07.663Z,15.09
2019-04-24T03:14:40.681Z,15.09
2019-04-24T03:15:50.523Z,15.14
2019-04-24T03:16:59.608Z,15.15
2019-04-24T03:18:35.504Z,15.06
2019-04-24T03:19:43.800Z,15.07
2019-04-24T03:21:42.228Z,15.10
2019-04-24T03:25:59.444Z,15.03
2019-04-24T03:27:02.260Z,14.96
2019-04-24T03:28:42.605Z,14.97
2019-04-24T03:36:14.165Z,15.07
2019-04-24T03:36:54.990Z,15.14
2019-04-24T03:43:11.971Z,15.02
2019-04-24T03:46:32.729Z,15.07
2019-04-24T03:47:54.181Z,15.04
2019-04-24T03:56:30.897Z,14.92
2019-04-24T04:00:02.120Z,14.91
2019-04-24T04:00:44.674Z,14.92
2019-04-24T04:03:35.943Z,14.85
2019-04-24T04:04:42.212Z,14.78
2019-04-24T04:08:49.776Z,14.62
2019-04-24T04:10:39.362Z,14.53
2019-04-24T04:12:04.781Z,14.36
2019-04-24T04:12:58.902Z,14.45
2019-04-24T04:15:01.053Z,14.40
2019-04-24T04:15:29.608Z,14.35
2019-04-24T04:18:42.567Z,14.35
2019-04-24T04:20:41.049Z,14.36
2019-04-24T04:22:47.179Z,14.41
2019-04-24T04:24:34.532Z,14.37
2019-04-24T04:25:47.896Z,14.43
2019-04-24T04:26:45.831Z,14.35
2019-04-24T04:28:39.959Z,14.45
2019-04-24T04:29:49.617Z,14.35
2019-04-24T04:30:51.802Z,14.35
2019-04-24T04:31:36.104Z,14.33
2019-04-24T04:32:54.395Z,14.37
2019-04-24T04:34:30.656Z,14.25
2019-04-24T04:35:51.670Z,14.17
2019-04-24T04:36:46.239Z,14.00
2019-04-24T04:37:33.151Z,14.03
2019-04-24T04:40:45.616Z,13.85
2019-04-24T04:41:37.813Z,13.77
2019-04-24T04:44:39.875Z,13.79
2019-04-24T04:45:51.602Z,13.77
2019-04-24T04:46:50.572Z,13.71
2019-04-24T04:47:25.440Z,13.70
2019-04-24T04:49:00.380Z,13.77
2019-04-24T04:50:39.664Z,13.68
2019-04-24T04:51:37.958Z,13.68
2019-04-24T04:52:46.022Z,13.85
2019-04-24T04:55:22.021Z,13.67
2019-04-24T05:00:40.139Z,13.59
2019-04-24T05:02:56.418Z,13.57
2019-04-24T05:03:39.875Z,13.68
2019-04-24T05:11:46.860Z,14.81
2019-04-24T05:13:58.857Z,14.99
2019-04-24T05:15:24.114Z,14.72
2019-04-24T05:17:57.553Z,14.78
2019-04-24T05:18:38.575Z,14.70
2019-04-24T05:19:24.075Z,14.55
2019-04-24T05:20:43.102Z,14.55
2019-04-24T05:22:30.263Z,14.59
2019-04-24T05:24:27.076Z,14.92
2019-04-24T05:27:08.153Z,15.18
2019-04-24T05:27:38.446Z,15.18
2019-04-24T05:28:37.791Z,15.21
2019-04-24T05:29:37.617Z,15.21
2019-04-24T05:30:25.290Z,15.18
2019-04-24T05:31:34.503Z,15.27
2019-04-24T05:32:35.217Z,15.29
2019-04-24T05:33:40.464Z,15.43
2019-04-24T05:35:29.758Z,15.70
2019-04-24T05:36:19.841Z,15.79
2019-04-24T05:37:30.607Z,15.79
2019-04-24T05:38:18.893Z,15.83
2019-04-24T05:40:29.435Z,15.83
2019-04-24T05:41:28.500Z,15.73
2019-04-24T05:44:18.766Z,15.72
2019-04-24T05:45:32.515Z,15.72
2019-04-24T05:46:25.597Z,15.72
2019-04-24T05:47:30.972Z,15.62
2019-04-24T05:48:33.548Z,15.73
2019-04-24T05:49:25.950Z,15.72
2019-04-24T05:50:26.557Z,15.75
2019-04-24T05:51:36.018Z,15.77
2019-04-24T05:52:32.825Z,15.70
2019-04-24T05:54:20.936Z,15.80
2019-04-24T05:55:36.053Z,15.79
2019-04-24T05:56:34.256Z,15.91
2019-04-24T05:57:49.172Z,15.88
2019-04-24T05:59:37.000Z,15.98
2019-04-24T06:00:30.067Z,16.16
2019-04-24T06:02:04.748Z,16.26
2019-04-24T06:03:36.623Z,16.29
2019-04-24T06:05:28.413Z,16.49
2019-04-24T06:06:49.790Z,16.50
2019-04-24T06:07:52.331Z,16.53
2019-04-24T06:09:34.901Z,16.50
2019-04-24T06:12:29.914Z,16.46
2019-04-24T06:13:34.485Z,16.46
2019-04-24T06:14:31.388Z,16.42
2019-04-24T06:15:28.762Z,16.43
2019-04-24T06:16:28.275Z,16.26
2019-04-24T06:17:24.096Z,16.26
2019-04-24T06:19:26.338Z,16.38
2019-04-24T06:20:39.653Z,16.35
2019-04-24T06:23:35.093Z,16.36
2019-04-24T06:24:21.442Z,16.28
2019-04-24T06:25:32.544Z,16.31
2019-04-24T06:27:25.298Z,16.31
2019-04-24T06:29:07.986Z,16.24
2019-04-24T06:29:34.691Z,16.31
2019-04-24T06:30:28.662Z,16.26
2019-04-24T06:32:34.841Z,16.29
2019-04-24T06:33:34.147Z,16.33
2019-04-24T06:34:20.042Z,16.35
2019-04-24T06:36:43.650Z,16.39
2019-04-24T06:37:25.409Z,16.39
2019-04-24T06:38:33.718Z,16.47
2019-04-24T06:40:38.318Z,16.39
2019-04-24T06:41:28.408Z,16.42
2019-04-24T06:42:22.598Z,16.41
2019-04-24T06:43:33.046Z,16.43
2019-04-24T06:44:35.183Z,16.53
2019-04-24T06:45:31.267Z,16.50
2019-04-24T06:46:21.599Z,16.50
2019-04-24T06:48:41.165Z,16.51
2019-04-24T06:50:25.227Z,16.56
2019-04-24T06:52:29.029Z,16.54
2019-04-24T06:53:10.880Z,16.57
2019-04-24T06:54:21.719Z,16.54
2019-04-24T06:55:23.984Z,16.47
2019-04-24T06:56:36.284Z,16.50
2019-04-24T06:57:27.460Z,16.51
2019-04-24T06:58:11.757Z,16.43
2019-04-24T06:59:27.721Z,16.43
2019-04-24T07:00:37.494Z,16.43
2019-04-24T07:01:31.399Z,16.49
2019-04-24T07:02:24.826Z,16.38
2019-04-24T07:03:43.545Z,16.49
2019-04-24T07:05:23.201Z,16.49
2019-04-24T07:07:25.564Z,16.51
2019-04-24T07:08:07.036Z,16.61
2019-04-24T07:09:31.900Z,16.72
2019-04-24T07:10:40.974Z,16.86
2019-04-24T07:11:20.865Z,16.91
2019-04-24T07:13:37.756Z,17.26
2019-04-24T07:15:27.067Z,17.57
2019-04-24T07:16:47.736Z,17.72
2019-04-24T07:18:23.942Z,17.86
2019-04-24T07:19:25.003Z,18.01
2019-04-24T07:20:30.280Z,18.04
2019-04-24T07:21:21.096Z,18.11
2019-04-24T07:22:19.238Z,18.19
2019-04-24T07:23:26.411Z,18.29
2019-04-24T07:24:19.192Z,18.37
2019-04-24T07:26:16.286Z,18.50
2019-04-24T07:29:28.456Z,18.56
2019-04-24T07:30:42.397Z,18.62
2019-04-24T07:31:46.326Z,18.56
2019-04-24T07:32:23.676Z,18.56
2019-04-24T07:33:39.252Z,18.58
2019-04-24T07:34:27.672Z,18.56
2019-04-24T07:35:28.395Z,18.56
2019-04-24T07:37:42.797Z,18.78
2019-04-24T07:39:23.489Z,18.83
2019-04-24T07:40:16.199Z,18.90
2019-04-24T07:44:17.303Z,19.11
2019-04-24T07:45:31.087Z,19.37
2019-04-24T07:46:16.196Z,19.39
2019-04-24T07:47:15.569Z,19.58
2019-04-24T07:48:20.843Z,19.58
2019-04-24T07:49:35.842Z,19.52
2019-04-24T07:50:20.936Z,19.56
2019-04-24T07:52:40.591Z,19.62
2019-04-24T07:54:22.979Z,19.71
2019-04-24T07:55:27.731Z,19.84
2019-04-24T07:57:14.525Z,20.32
2019-04-24T07:58:28.792Z,20.60
2019-04-24T08:01:23.014Z,21.03
2019-04-24T08:02:26.809Z,21.14
2019-04-24T08:03:24.580Z,21.21
2019-04-24T08:06:23.620Z,21.43
2019-04-24T08:07:19.236Z,21.57
2019-04-24T08:08:21.939Z,21.88
2019-04-24T08:09:27.593Z,22.02
2019-04-24T08:11:15.859Z,22.07
2019-04-24T08:14:23.285Z,22.23
2019-04-24T08:16:14.941Z,22.45
2019-04-24T08:17:34.453Z,22.45
2019-04-24T08:19:36.488Z,22.68
2019-04-24T08:21:06.863Z,22.94
2019-04-24T08:22:22.359Z,23.08
2019-04-24T08:23:28.992Z,23.20
2019-04-24T08:24:32.611Z,23.00
2019-04-24T08:26:11.509Z,22.96
2019-04-24T08:27:26.897Z,22.94
2019-04-24T08:28:24.594Z,23.21
2019-04-24T08:29:16.875Z,23.34
2019-04-24T08:30:26.492Z,23.41
2019-04-24T08:32:33.886Z,23.92
2019-04-24T08:33:31.398Z,23.92
2019-04-24T08:35:37.948Z,23.88
2019-04-24T08:36:17.712Z,24.20
2019-04-24T08:38:24.651Z,24.55
2019-04-24T08:40:18.107Z,25.07
2019-04-24T08:41:22.250Z,25.32
2019-04-24T08:44:18.075Z,25.75
2019-04-24T08:45:29.166Z,25.87
2019-04-24T08:46:19.187Z,25.55
2019-04-24T08:47:23.022Z,25.62
2019-04-24T08:48:37.559Z,25.36
2019-04-24T08:52:33.774Z,24.74
2019-04-24T08:54:12.298Z,24.58
2019-04-24T08:55:25.955Z,24.57
2019-04-24T08:56:23.060Z,24.70
2019-04-24T08:57:29.270Z,24.81
2019-04-24T08:58:30.379Z,25.03
2019-04-24T08:59:42.829Z,25.11
2019-04-24T09:00:19.880Z,25.10
2019-04-24T09:01:52.682Z,25.23
2019-04-24T09:02:08.352Z,25.21
2019-04-24T09:03:26.151Z,25.08
2019-04-24T09:05:36.426Z,24.96
2019-04-24T09:06:29.736Z,25.18
2019-04-24T09:07:18.441Z,25.21
2019-04-24T09:08:17.776Z,25.53
2019-04-24T09:09:21.698Z,25.69
2019-04-24T09:11:33.479Z,25.93
2019-04-24T09:12:21.332Z,25.83
2019-04-24T09:14:15.508Z,25.93
2019-04-24T09:15:23.024Z,25.88
2019-04-24T09:17:10.200Z,25.98
2019-04-24T09:20:30.006Z,26.00
2019-04-24T09:22:25.898Z,26.37
2019-04-24T09:27:18.986Z,27.29
2019-04-24T09:28:18.444Z,27.27
2019-04-24T09:29:29.872Z,27.05
2019-04-24T09:34:07.476Z,27.27
2019-04-24T09:35:24.892Z,27.39
2019-04-24T09:36:45.139Z,27.51
2019-04-24T09:37:17.844Z,27.51
2019-04-24T09:38:22.740Z,27.32
2019-04-24T09:41:27.590Z,27.49
2019-04-24T09:42:38.386Z,27.51
2019-04-24T09:44:17.079Z,27.93
2019-04-24T09:45:27.482Z,27.89
2019-04-24T09:47:25.611Z,27.48
2019-04-24T09:48:19.852Z,26.95
2019-04-24T09:49:02.377Z,26.90
2019-04-24T09:50:25.060Z,26.62
2019-04-24T09:51:14.768Z,26.21
2019-04-24T09:52:21.272Z,26.05
2019-04-24T09:54:12.517Z,26.38
2019-04-24T09:55:17.312Z,26.36
2019-04-24T09:56:17.507Z,26.52
2019-04-24T09:58:27.719Z,27.27
2019-04-24T10:00:19.965Z,27.65
2019-04-24T10:05:12.840Z,28.51
2019-04-24T10:06:18.863Z,28.91
2019-04-24T10:07:29.179Z,29.24
2019-04-24T10:08:27.298Z,29.54
2019-04-24T10:09:15.144Z,29.75
2019-04-24T10:10:16.919Z,29.94
2019-04-24T10:11:30.858Z,29.49
2019-04-24T10:12:36.283Z,29.23
2019-04-24T10:13:08.577Z,29.34
2019-04-24T10:14:10.693Z,29.19
2019-04-24T10:15:08.600Z,29.01
2019-04-24T10:16:38.858Z,29.04
2019-04-24T10:18:10.110Z,29.07
2019-04-24T10:19:26.721Z,29.13
2019-04-24T10:20:15.352Z,29.59
2019-04-24T10:21:09.767Z,29.71
2019-04-24T10:22:04.943Z,30.06
2019-04-24T10:23:05.046Z,30.47
2019-04-24T10:26:12.971Z,31.39
2019-04-24T10:27:09.494Z,31.70
2019-04-24T10:28:16.037Z,31.52
2019-04-24T10:30:06.068Z,32.09
2019-04-24T10:31:08.739Z,32.59
2019-04-24T10:32:22.838Z,33.07
2019-04-24T10:33:12.135Z,33.00
2019-04-24T10:35:19.238Z,32.46
2019-04-24T10:36:10.529Z,31.42
2019-04-24T10:37:22.553Z,31.33
2019-04-24T10:39:28.036Z,32.04
2019-04-24T10:43:10.382Z,31.61
2019-04-24T10:44:18.698Z,31.76
2019-04-24T10:45:16.198Z,32.11
2019-04-24T10:46:15.682Z,32.29
2019-04-24T10:47:49.662Z,32.07
2019-04-24T10:48:06.342Z,31.92
2019-04-24T10:49:18.970Z,32.09
2019-04-24T10:50:04.597Z,32.18
2019-04-24T10:51:39.697Z,32.51
2019-04-24T10:54:03.075Z,33.71
2019-04-24T10:55:15.843Z,33.05
2019-04-24T10:56:16.800Z,32.96
2019-04-24T10:57:11.189Z,32.96
2019-04-24T10:58:16.127Z,32.58
2019-04-24T10:59:04.937Z,32.33
2019-04-24T11:00:34.225Z,31.92
2019-04-24T11:02:28.119Z,31.54
2019-04-24T11:03:18.892Z,31.77
2019-04-24T11:04:16.513Z,32.38
2019-04-24T11:05:26.719Z,32.80
2019-04-24T11:06:07.655Z,32.95
2019-04-24T11:07:14.855Z,33.23
2019-04-24T11:08:25.750Z,33.34
2019-04-24T11:11:16.372Z,33.52
2019-04-24T11:12:22.078Z,33.96
2019-04-24T11:13:17.433Z,34.51
2019-04-24T11:15:21.601Z,34.51
2019-04-24T11:16:24.441Z,34.57
2019-04-24T11:17:23.816Z,34.02
2019-04-24T11:18:24.638Z,33.04
2019-04-24T11:19:19.963Z,32.55
2019-04-24T11:20:15.589Z,32.37
2019-04-24T11:21:39.543Z,32.34
2019-04-24T11:22:15.106Z,33.20
2019-04-24T11:23:19.094Z,33.69
2019-04-24T11:24:21.570Z,34.06
2019-04-24T11:26:19.184Z,33.34
2019-04-24T11:27:21.163Z,33.12
2019-04-24T11:28:21.987Z,32.19
2019-04-24T11:29:09.823Z,31.25
2019-04-24T11:30:10.044Z,30.50
2019-04-24T11:31:17.767Z,29.44
2019-04-24T11:33:21.820Z,29.13
2019-04-24T11:34:36.103Z,29.31
2019-04-24T11:36:19.821Z,29.35
2019-04-24T11:37:09.319Z,29.07
2019-04-24T11:38:21.879Z,29.12
2019-04-24T11:39:16.531Z,29.34
2019-04-24T11:40:30.043Z,29.34
2019-04-24T11:41:10.273Z,29.26
2019-04-24T11:42:34.852Z,29.47
2019-04-24T11:43:03.298Z,29.81
2019-04-24T11:44:23.072Z,30.10
2019-04-24T11:45:25.569Z,30.66
2019-04-24T11:46:26.502Z,31.24
2019-04-24T11:47:37.866Z,31.66
2019-04-24T11:48:23.222Z,32.11
2019-04-24T11:49:24.853Z,32.11
2019-04-24T11:51:29.094Z,32.15
2019-04-24T11:53:11.100Z,32.53
2019-04-24T11:54:09.748Z,32.74
2019-04-24T11:55:23.038Z,32.87
2019-04-24T11:56:11.957Z,32.93
2019-04-24T11:58:21.114Z,33.37
2019-04-24T11:59:50.810Z,33.84
2019-04-24T12:00:59.728Z,34.17
2019-04-24T12:02:13.366Z,34.25
2019-04-24T12:03:04.313Z,34.47
2019-04-24T12:04:16.604Z,34.48
2019-04-24T12:05:14.554Z,34.32
2019-04-24T12:07:12.983Z,34.66
2019-04-24T12:09:04.465Z,34.78
2019-04-24T12:10:16.706Z,34.43
2019-04-24T12:12:09.465Z,33.96
2019-04-24T12:13:10.403Z,32.96
2019-04-24T12:14:05.554Z,32.75
2019-04-24T12:16:14.633Z,32.89
2019-04-24T12:17:02.943Z,33.15
2019-04-24T12:18:16.347Z,33.28
2019-04-24T12:19:33.762Z,33.50
2019-04-24T12:20:08.747Z,33.00
2019-04-24T12:22:04.026Z,32.15
2019-04-24T12:23:05.810Z,32.14
2019-04-24T12:25:10.938Z,31.24
2019-04-24T12:26:57.574Z,30.90
2019-04-24T12:28:05.704Z,31.15
2019-04-24T12:30:00.252Z,31.54
2019-04-24T12:31:18.747Z,31.80
2019-04-24T12:32:07.118Z,32.11
2019-04-24T12:32:59.721Z,32.21
2019-04-24T12:33:59.955Z,32.34
2019-04-24T12:35:07.179Z,32.33
2019-04-24T12:36:10.486Z,32.45
2019-04-24T12:37:19.920Z,32.48
2019-04-24T12:38:12.371Z,33.07
2019-04-24T12:39:14.819Z,32.97
2019-04-24T12:40:07.216Z,32.40
2019-04-24T12:41:10.340Z,31.74
2019-04-24T12:42:25.410Z,31.80
2019-04-24T12:43:08.621Z,32.49
2019-04-24T12:44:10.120Z,32.74
2019-04-24T12:45:05.500Z,32.85
2019-04-24T12:47:12.342Z,33.15
2019-04-24T12:47:58.334Z,33.27
2019-04-24T12:49:13.799Z,33.09
2019-04-24T12:50:05.482Z,32.64
2019-04-24T12:51:20.062Z,32.09
2019-04-24T12:52:04.784Z,31.84
2019-04-24T12:54:12.596Z,32.21
2019-04-24T12:55:41.918Z,32.09
2019-04-24T12:56:08.121Z,32.04
2019-04-24T12:57:09.354Z,31.65
2019-04-24T12:58:28.818Z,31.54
2019-04-24T12:59:16.760Z,31.70
2019-04-24T12:59:55.103Z,31.66
2019-04-24T13:02:03.945Z,31.49
2019-04-24T13:03:05.612Z,31.81
2019-04-24T13:05:21.554Z,32.07
2019-04-24T13:07:07.454Z,31.92
2019-04-24T13:09:19.338Z,31.92
2019-04-24T13:10:20.456Z,31.99
2019-04-24T13:11:08.118Z,31.96
2019-04-24T13:12:19.706Z,31.70
2019-04-24T13:13:34.051Z,31.37
2019-04-24T13:14:13.689Z,31.07
2019-04-24T13:15:28.401Z,31.29
2019-04-24T13:16:04.961Z,31.22
2019-04-24T13:17:31.356Z,31.25
2019-04-24T13:19:22.359Z,31.07
2019-04-24T13:19:40.999Z,31.21
2019-04-24T13:20:43.543Z,31.24
2019-04-24T13:21:47.726Z,30.92
2019-04-24T13:22:51.852Z,31.21
2019-04-24T13:23:53.147Z,31.18
2019-04-24T13:24:59.325Z,30.92
2019-04-24T13:26:11.426Z,30.81
2019-04-24T13:27:14.408Z,30.72
2019-04-24T13:29:15.377Z,30.55
2019-04-24T13:30:10.697Z,30.81
2019-04-24T13:31:15.500Z,31.07
2019-04-24T13:32:10.051Z,31.34
2019-04-24T13:33:23.734Z,31.27
2019-04-24T13:34:12.347Z,31.21
2019-04-24T13:36:32.182Z,31.14
2019-04-24T13:37:09.974Z,31.22
2019-04-24T13:38:12.845Z,31.59
2019-04-24T13:39:20.792Z,31.59
2019-04-24T13:40:02.810Z,31.58
2019-04-24T13:41:09.437Z,31.12
2019-04-24T13:43:12.969Z,31.12
2019-04-24T13:44:11.948Z,31.15
2019-04-24T13:45:17.067Z,30.72
2019-04-24T13:46:05.132Z,30.57
2019-04-24T13:47:33.192Z,29.98
2019-04-24T13:49:13.508Z,29.72
2019-04-24T13:50:14.588Z,29.84
2019-04-24T13:51:03.914Z,29.98
2019-04-24T13:52:51.488Z,30.05
2019-04-24T13:54:13.578Z,30.09
2019-04-24T13:55:13.219Z,29.88
2019-04-24T13:56:20.598Z,29.65
2019-04-24T13:57:07.199Z,29.61
2019-04-24T13:58:16.493Z,29.17
2019-04-24T13:59:07.386Z,28.82
2019-04-24T14:01:17.674Z,28.01
2019-04-24T14:02:54.546Z,27.67
2019-04-24T14:05:08.747Z,27.67
2019-04-24T14:06:21.818Z,27.59
2019-04-24T14:12:15.399Z,27.15
2019-04-24T14:13:04.522Z,27.05
2019-04-24T14:14:16.228Z,26.96
2019-04-24T14:15:07.400Z,26.95
2019-04-24T14:16:22.476Z,26.85
2019-04-24T14:17:28.134Z,26.89
2019-04-24T14:19:23.184Z,26.68
2019-04-24T14:20:18.861Z,26.63
2019-04-24T14:23:20.820Z,26.48
2019-04-24T14:24:14.485Z,26.36
2019-04-24T14:25:24.775Z,26.25
2019-04-24T14:26:12.690Z,26.26
2019-04-24T14:29:14.512Z,26.28
2019-04-24T14:31:14.273Z,26.16
2019-04-24T14:33:14.282Z,26.33
2019-04-24T14:34:18.958Z,26.44
2019-04-24T14:36:20.220Z,26.34
2019-04-24T14:37:09.964Z,26.31
2019-04-24T14:39:20.614Z,26.26
2019-04-24T14:40:13.436Z,26.23
2019-04-24T14:41:07.617Z,26.28
2019-04-24T14:42:18.704Z,26.26
2019-04-24T14:43:25.008Z,26.15
2019-04-24T14:44:34.048Z,26.26
2019-04-24T14:45:19.057Z,26.13
2019-04-24T14:47:15.509Z,26.07
2019-04-24T14:48:03.576Z,26.05
2019-04-24T14:49:21.732Z,26.06
2019-04-24T14:51:13.220Z,26.00
2019-04-24T14:52:18.739Z,26.06
2019-04-24T14:53:04.807Z,25.98
2019-04-24T14:54:08.071Z,25.85
2019-04-24T14:55:16.374Z,25.88
2019-04-24T14:56:06.627Z,25.83
2019-04-24T14:57:09.487Z,25.77
2019-04-24T14:58:14.211Z,25.72
2019-04-24T15:00:27.658Z,25.55
2019-04-24T15:02:15.328Z,25.59
2019-04-24T15:03:03.608Z,25.72
2019-04-24T15:04:12.096Z,25.77
2019-04-24T15:05:11.187Z,25.84
2019-04-24T15:06:15.589Z,25.90
2019-04-24T15:07:14.158Z,25.81
2019-04-24T15:08:15.739Z,25.77
2019-04-24T15:09:13.525Z,25.88
2019-04-24T15:10:21.821Z,25.88
2019-04-24T15:11:04.364Z,25.80
2019-04-24T15:13:19.637Z,25.78
2019-04-24T15:14:15.260Z,25.69
2019-04-24T15:17:15.693Z,25.40
2019-04-24T15:18:06.992Z,25.32
2019-04-24T15:19:13.979Z,25.29
2019-04-24T15:20:14.251Z,25.33
2019-04-24T15:21:10.825Z,25.31
2019-04-24T15:23:05.935Z,25.23
2019-04-24T15:24:35.263Z,25.31
2019-04-24T15:25:28.499Z,25.31
2019-04-24T15:26:15.022Z,25.35
2019-04-24T15:29:13.329Z,25.36
2019-04-24T15:30:11.077Z,25.36
2019-04-24T15:31:03.836Z,25.32
2019-04-24T15:32:15.914Z,25.25
2019-04-24T15:34:08.710Z,25.29
2019-04-24T15:36:07.806Z,25.22
2019-04-24T15:37:15.697Z,25.16
2019-04-24T15:38:09.295Z,25.22
2019-04-24T15:39:15.423Z,25.11
2019-04-24T15:40:25.263Z,25.16
2019-04-24T15:41:15.109Z,25.16
2019-04-24T15:43:13.256Z,25.21
2019-04-24T15:44:12.535Z,25.08
2019-04-24T15:45:05.639Z,24.99
2019-04-24T15:46:05.189Z,25.04
2019-04-24T15:47:24.160Z,25.17
2019-04-24T15:49:12.588Z,25.13
2019-04-24T15:50:14.682Z,25.13
2019-04-24T15:51:10.376Z,25.03
2019-04-24T15:51:36.283Z,25.08
2019-04-24T15:52:36.249Z,24.92
2019-04-24T15:53:36.222Z,24.91
2019-04-24T15:54:36.193Z,24.96
2019-04-24T15:55:36.175Z,24.85
2019-04-24T15:56:36.143Z,24.74
2019-04-24T15:57:37.731Z,24.73
2019-04-24T15:58:47.188Z,24.73
2019-04-24T15:59:58.766Z,24.70
2019-04-24T16:01:14.516Z,24.76
2019-04-24T16:03:27.811Z,24.63
2019-04-24T16:04:09.359Z,24.58
2019-04-24T16:04:54.040Z,24.55
2019-04-24T16:05:35.912Z,24.63
2019-04-24T16:06:35.864Z,24.68
2019-04-24T16:07:35.834Z,24.65
2019-04-24T16:08:35.812Z,24.65
2019-04-24T16:09:35.786Z,24.65
2019-04-24T16:10:35.785Z,24.61
2019-04-24T16:11:35.728Z,24.58
2019-04-24T16:12:35.694Z,24.57
2019-04-24T16:13:43.315Z,24.58
2019-04-24T16:15:05.134Z,24.63
2019-04-24T16:16:08.781Z,24.58
2019-04-24T16:17:05.808Z,24.55
2019-04-24T16:18:19.175Z,24.51
2019-04-24T16:20:08.759Z,24.36
2019-04-24T16:21:18.720Z,24.38
2019-04-24T16:22:00.005Z,24.29
2019-04-24T16:22:59.633Z,24.33
2019-04-24T16:24:29.385Z,24.28
2019-04-24T16:27:14.626Z,24.24
2019-04-24T16:28:08.480Z,24.14
2019-04-24T16:29:16.145Z,24.03
2019-04-24T16:30:14.249Z,23.84
2019-04-24T16:31:08.384Z,23.73
2019-04-24T16:32:23.886Z,23.66
2019-04-24T16:34:08.099Z,23.43
2019-04-24T16:35:05.543Z,23.18
2019-04-24T16:36:14.517Z,23.10
2019-04-24T16:37:45.078Z,23.17
2019-04-24T16:38:14.024Z,23.12
2019-04-24T16:39:04.888Z,22.99
2019-04-24T16:42:20.133Z,22.98
2019-04-24T16:43:13.119Z,22.98
2019-04-24T16:44:17.730Z,22.96
2019-04-24T16:45:03.752Z,22.90
2019-04-24T16:46:32.466Z,22.84
2019-04-24T16:46:54.685Z,22.66
2019-04-24T16:49:03.610Z,22.18
2019-04-24T16:50:22.986Z,22.04
2019-04-24T16:53:10.117Z,20.55
2019-04-24T16:55:05.880Z,19.27
2019-04-24T16:55:51.368Z,18.49
2019-04-24T17:00:14.208Z,16.15
2019-04-24T17:03:27.880Z,15.21
2019-04-24T17:05:10.585Z,14.73
2019-04-24T17:06:11.374Z,14.58
2019-04-24T17:09:09.006Z,14.28
2019-04-24T17:10:22.725Z,14.26
2019-04-24T17:11:10.458Z,14.18
2019-04-24T17:12:15.850Z,14.15
2019-04-24T17:14:08.614Z,14.18
2019-04-24T17:14:57.964Z,14.20
2019-04-24T17:16:14.005Z,14.20
2019-04-24T17:17:28.526Z,14.18
2019-04-24T17:18:06.790Z,14.15
2019-04-24T17:19:12.664Z,14.25
2019-04-24T17:22:06.065Z,14.04
2019-04-24T17:23:04.089Z,14.15
2019-04-24T17:24:07.997Z,14.07
2019-04-24T17:25:06.096Z,14.04
2019-04-24T17:27:09.240Z,13.96
2019-04-24T17:28:24.153Z,13.93
2019-04-24T17:31:22.874Z,13.75
2019-04-24T17:33:01.179Z,13.67
2019-04-24T17:34:14.532Z,13.65
2019-04-24T17:35:19.880Z,13.57
2019-04-24T17:36:06.357Z,13.59
2019-04-24T17:36:33.211Z,13.65
2019-04-24T17:37:33.153Z,13.59
2019-04-24T17:38:33.098Z,13.53
2019-04-24T17:39:33.063Z,13.59
2019-04-24T17:40:33.031Z,13.56
2019-04-24T17:41:39.140Z,13.56
2019-04-24T17:42:47.341Z,13.39
2019-04-24T17:44:17.003Z,13.22
2019-04-24T17:45:05.694Z,13.22
2019-04-24T17:46:04.847Z,13.13
2019-04-24T17:48:03.225Z,13.08
2019-04-24T17:49:13.822Z,13.11
2019-04-24T17:51:04.151Z,12.95
2019-04-24T17:54:01.951Z,12.97
2019-04-24T17:54:55.471Z,12.83
2019-04-24T17:57:13.138Z,12.78
2019-04-24T17:57:50.185Z,12.79
2019-04-24T17:58:35.076Z,12.62
2019-04-24T17:59:33.122Z,12.62
2019-04-24T18:00:32.393Z,12.67
2019-04-24T18:01:32.331Z,12.75
2019-04-24T18:02:32.296Z,12.62
2019-04-24T18:03:32.263Z,12.67
2019-04-24T18:04:32.227Z,12.61
2019-04-24T18:05:32.252Z,12.64
2019-04-24T18:06:32.160Z,12.73
2019-04-24T18:07:32.166Z,12.61
2019-04-24T18:08:32.092Z,12.65
2019-04-24T18:09:32.245Z,12.72
2019-04-24T18:10:33.067Z,12.68
2019-04-24T18:11:32.486Z,12.62
2019-04-24T18:12:32.115Z,12.61
2019-04-24T18:13:32.058Z,12.61
2019-04-24T18:14:31.894Z,12.61
2019-04-24T18:15:32.408Z,12.61
2019-04-24T18:16:31.826Z,12.61
2019-04-24T18:17:32.114Z,12.62
2019-04-24T18:18:31.756Z,12.64
2019-04-24T18:19:31.945Z,12.61
2019-04-24T18:20:31.751Z,12.60
2019-04-24T18:21:32.312Z,12.61